sensor_id;sensor_type;location;lat;lon;timestamp;P1;durP1;ratioP1;P2;durP2;ratioP2
40459;SDS011;26164;51.138;16.952;2023-09-18T00:00:48;11.65;;;8.50;;
40459;SDS011;26164;51.138;16.952;2023-09-18T00:03:36;11.68;;;8.40;;
40459;SDS011;26164;51.138;16.952;2023-09-18T00:06:02;11.00;;;8.73;;
40459;SDS011;26164;51.138;16.952;2023-09-18T00:08:28;9.27;;;7.65;;
40459;SDS011;26164;51.138;16.952;2023-09-18T00:10:54;10.23;;;8.35;;
40459;SDS011;26164;51.138;16.952;2023-09-18T00:13:20;10.38;;;8.05;;
40459;SDS011;26164;51.138;16.952;2023-09-18T00:15:46;10.93;;;8.00;;
40459;SDS011;26164;51.138;16.952;2023-09-18T00:18:13;10.55;;;8.02;;
40459;SDS011;26164;51.138;16.952;2023-09-18T00:20:40;11.73;;;8.07;;
40459;SDS011;26164;51.138;16.952;2023-09-18T00:23:06;11.05;;;8.63;;
40459;SDS011;26164;51.138;16.952;2023-09-18T00:25:33;13.95;;;8.77;;
40459;SDS011;26164;51.138;16.952;2023-09-18T00:27:59;13.07;;;8.63;;
40459;SDS011;26164;51.138;16.952;2023-09-18T00:30:24;11.43;;;8.15;;
40459;SDS011;26164;51.138;16.952;2023-09-18T00:32:50;10.38;;;8.95;;
40459;SDS011;26164;51.138;16.952;2023-09-18T00:35:16;10.23;;;8.55;;
40459;SDS011;26164;51.138;16.952;2023-09-18T00:37:41;13.20;;;8.82;;
40459;SDS011;26164;51.138;16.952;2023-09-18T00:40:09;12.30;;;8.60;;
40459;SDS011;26164;51.138;16.952;2023-09-18T00:42:34;13.20;;;9.50;;
40459;SDS011;26164;51.138;16.952;2023-09-18T00:45:00;12.68;;;8.80;;
40459;SDS011;26164;51.138;16.952;2023-09-18T00:47:26;10.25;;;8.93;;
40459;SDS011;26164;51.138;16.952;2023-09-18T00:49:52;12.77;;;8.90;;
40459;SDS011;26164;51.138;16.952;2023-09-18T00:52:18;12.90;;;8.90;;
40459;SDS011;26164;51.138;16.952;2023-09-18T00:54:45;12.82;;;9.65;;
40459;SDS011;26164;51.138;16.952;2023-09-18T00:57:12;10.93;;;9.25;;
40459;SDS011;26164;51.138;16.952;2023-09-18T00:59:38;11.13;;;9.40;;
40459;SDS011;26164;51.138;16.952;2023-09-18T01:02:04;11.52;;;10.00;;
40459;SDS011;26164;51.138;16.952;2023-09-18T01:04:30;15.13;;;9.75;;
40459;SDS011;26164;51.138;16.952;2023-09-18T01:06:58;12.20;;;9.68;;
40459;SDS011;26164;51.138;16.952;2023-09-18T01:09:24;12.43;;;9.32;;
40459;SDS011;26164;51.138;16.952;2023-09-18T01:12:00;15.02;;;9.95;;
40459;SDS011;26164;51.138;16.952;2023-09-18T01:16:55;13.75;;;10.68;;
40459;SDS011;26164;51.138;16.952;2023-09-18T01:19:41;13.75;;;10.68;;
40459;SDS011;26164;51.138;16.952;2023-09-18T01:22:08;12.77;;;10.98;;
40459;SDS011;26164;51.138;16.952;2023-09-18T01:24:35;14.48;;;11.63;;
40459;SDS011;26164;51.138;16.952;2023-09-18T01:27:02;14.13;;;11.20;;
40459;SDS011;26164;51.138;16.952;2023-09-18T01:29:30;14.95;;;11.60;;
40459;SDS011;26164;51.138;16.952;2023-09-18T01:31:55;13.02;;;11.13;;
40459;SDS011;26164;51.138;16.952;2023-09-18T01:34:21;14.05;;;10.90;;
40459;SDS011;26164;51.138;16.952;2023-09-18T01:36:50;15.85;;;10.82;;
40459;SDS011;26164;51.138;16.952;2023-09-18T01:39:16;13.52;;;11.25;;
40459;SDS011;26164;51.138;16.952;2023-09-18T01:41:42;15.43;;;12.15;;
40459;SDS011;26164;51.138;16.952;2023-09-18T01:44:08;15.25;;;11.52;;
40459;SDS011;26164;51.138;16.952;2023-09-18T01:46:34;12.32;;;10.98;;
40459;SDS011;26164;51.138;16.952;2023-09-18T01:49:03;15.13;;;11.57;;
40459;SDS011;26164;51.138;16.952;2023-09-18T01:51:29;15.13;;;11.60;;
40459;SDS011;26164;51.138;16.952;2023-09-18T01:53:55;13.65;;;11.45;;
40459;SDS011;26164;51.138;16.952;2023-09-18T01:56:21;13.50;;;11.65;;
40459;SDS011;26164;51.138;16.952;2023-09-18T01:58:47;15.68;;;11.30;;
40459;SDS011;26164;51.138;16.952;2023-09-18T02:01:13;14.48;;;11.32;;
40459;SDS011;26164;51.138;16.952;2023-09-18T02:03:39;17.42;;;12.02;;
40459;SDS011;26164;51.138;16.952;2023-09-18T02:06:10;19.50;;;12.13;;
40459;SDS011;26164;51.138;16.952;2023-09-18T02:08:36;13.63;;;11.63;;
40459;SDS011;26164;51.138;16.952;2023-09-18T02:11:02;18.50;;;13.07;;
40459;SDS011;26164;51.138;16.952;2023-09-18T02:13:28;15.75;;;12.00;;
40459;SDS011;26164;51.138;16.952;2023-09-18T02:15:54;15.00;;;12.20;;
40459;SDS011;26164;51.138;16.952;2023-09-18T02:18:21;15.20;;;12.20;;
40459;SDS011;26164;51.138;16.952;2023-09-18T02:20:46;14.88;;;12.60;;
40459;SDS011;26164;51.138;16.952;2023-09-18T02:23:15;14.75;;;11.85;;
40459;SDS011;26164;51.138;16.952;2023-09-18T02:25:41;14.45;;;12.95;;
40459;SDS011;26164;51.138;16.952;2023-09-18T02:28:09;16.90;;;12.57;;
40459;SDS011;26164;51.138;16.952;2023-09-18T02:30:34;13.63;;;11.35;;
40459;SDS011;26164;51.138;16.952;2023-09-18T02:33:00;15.10;;;12.15;;
40459;SDS011;26164;51.138;16.952;2023-09-18T02:35:28;16.52;;;12.63;;
40459;SDS011;26164;51.138;16.952;2023-09-18T02:37:54;14.48;;;11.70;;
40459;SDS011;26164;51.138;16.952;2023-09-18T02:40:20;15.85;;;11.88;;
40459;SDS011;26164;51.138;16.952;2023-09-18T02:42:46;15.45;;;12.25;;
40459;SDS011;26164;51.138;16.952;2023-09-18T02:45:11;15.32;;;12.48;;
40459;SDS011;26164;51.138;16.952;2023-09-18T02:47:37;16.10;;;12.32;;
40459;SDS011;26164;51.138;16.952;2023-09-18T02:50:06;13.23;;;11.82;;
40459;SDS011;26164;51.138;16.952;2023-09-18T02:52:32;14.65;;;11.80;;
40459;SDS011;26164;51.138;16.952;2023-09-18T02:54:58;14.57;;;12.50;;
40459;SDS011;26164;51.138;16.952;2023-09-18T02:57:24;14.68;;;12.90;;
40459;SDS011;26164;51.138;16.952;2023-09-18T02:59:50;14.65;;;12.85;;
40459;SDS011;26164;51.138;16.952;2023-09-18T03:02:16;14.82;;;12.48;;
40459;SDS011;26164;51.138;16.952;2023-09-18T03:04:41;14.98;;;12.90;;
40459;SDS011;26164;51.138;16.952;2023-09-18T03:07:07;14.77;;;12.55;;
40459;SDS011;26164;51.138;16.952;2023-09-18T03:09:33;17.67;;;13.02;;
40459;SDS011;26164;51.138;16.952;2023-09-18T03:11:59;16.42;;;12.68;;
40459;SDS011;26164;51.138;16.952;2023-09-18T03:14:24;14.45;;;12.85;;
40459;SDS011;26164;51.138;16.952;2023-09-18T03:16:50;16.75;;;12.88;;
40459;SDS011;26164;51.138;16.952;2023-09-18T03:19:16;17.58;;;13.50;;
40459;SDS011;26164;51.138;16.952;2023-09-18T03:21:42;15.77;;;12.60;;
40459;SDS011;26164;51.138;16.952;2023-09-18T03:24:08;17.27;;;12.93;;
40459;SDS011;26164;51.138;16.952;2023-09-18T03:26:34;14.77;;;12.90;;
40459;SDS011;26164;51.138;16.952;2023-09-18T03:28:59;16.27;;;13.32;;
40459;SDS011;26164;51.138;16.952;2023-09-18T03:31:26;15.35;;;12.98;;
40459;SDS011;26164;51.138;16.952;2023-09-18T03:33:51;15.25;;;12.23;;
40459;SDS011;26164;51.138;16.952;2023-09-18T03:36:20;16.58;;;13.23;;
40459;SDS011;26164;51.138;16.952;2023-09-18T03:38:46;17.13;;;12.45;;
40459;SDS011;26164;51.138;16.952;2023-09-18T03:41:12;16.38;;;13.27;;
40459;SDS011;26164;51.138;16.952;2023-09-18T03:43:38;20.15;;;13.02;;
40459;SDS011;26164;51.138;16.952;2023-09-18T03:46:04;14.70;;;12.98;;
40459;SDS011;26164;51.138;16.952;2023-09-18T03:48:33;14.05;;;12.07;;
40459;SDS011;26164;51.138;16.952;2023-09-18T03:51:04;14.38;;;12.20;;
40459;SDS011;26164;51.138;16.952;2023-09-18T03:53:30;19.60;;;12.57;;
40459;SDS011;26164;51.138;16.952;2023-09-18T03:55:56;16.80;;;12.75;;
40459;SDS011;26164;51.138;16.952;2023-09-18T03:58:21;14.52;;;11.70;;
40459;SDS011;26164;51.138;16.952;2023-09-18T04:00:47;17.35;;;11.88;;
40459;SDS011;26164;51.138;16.952;2023-09-18T04:03:14;18.38;;;12.20;;
40459;SDS011;26164;51.138;16.952;2023-09-18T04:05:41;15.45;;;12.10;;
40459;SDS011;26164;51.138;16.952;2023-09-18T04:08:06;17.10;;;13.02;;
40459;SDS011;26164;51.138;16.952;2023-09-18T04:10:33;18.42;;;12.70;;
40459;SDS011;26164;51.138;16.952;2023-09-18T04:12:58;17.73;;;12.60;;
40459;SDS011;26164;51.138;16.952;2023-09-18T04:15:24;17.60;;;12.48;;
40459;SDS011;26164;51.138;16.952;2023-09-18T04:17:51;16.98;;;12.82;;
40459;SDS011;26164;51.138;16.952;2023-09-18T04:20:17;16.85;;;13.15;;
40459;SDS011;26164;51.138;16.952;2023-09-18T04:22:45;17.65;;;12.70;;
40459;SDS011;26164;51.138;16.952;2023-09-18T04:25:12;36.83;;;15.75;;
40459;SDS011;26164;51.138;16.952;2023-09-18T04:27:38;20.42;;;13.45;;
40459;SDS011;26164;51.138;16.952;2023-09-18T04:30:05;32.15;;;15.65;;
40459;SDS011;26164;51.138;16.952;2023-09-18T04:32:31;23.83;;;14.63;;
40459;SDS011;26164;51.138;16.952;2023-09-18T04:34:57;31.65;;;15.38;;
40459;SDS011;26164;51.138;16.952;2023-09-18T04:37:23;31.65;;;15.90;;
40459;SDS011;26164;51.138;16.952;2023-09-18T04:39:49;21.13;;;13.52;;
40459;SDS011;26164;51.138;16.952;2023-09-18T04:42:14;19.42;;;12.93;;
40459;SDS011;26164;51.138;16.952;2023-09-18T04:44:42;16.75;;;12.77;;
40459;SDS011;26164;51.138;16.952;2023-09-18T04:47:07;22.00;;;12.98;;
40459;SDS011;26164;51.138;16.952;2023-09-18T04:49:37;16.08;;;13.02;;
40459;SDS011;26164;51.138;16.952;2023-09-18T04:52:02;24.58;;;13.50;;
40459;SDS011;26164;51.138;16.952;2023-09-18T04:54:28;25.92;;;13.55;;
40459;SDS011;26164;51.138;16.952;2023-09-18T04:56:54;21.27;;;13.65;;
40459;SDS011;26164;51.138;16.952;2023-09-18T04:59:21;20.08;;;12.88;;
40459;SDS011;26164;51.138;16.952;2023-09-18T05:01:47;19.35;;;12.85;;
40459;SDS011;26164;51.138;16.952;2023-09-18T05:04:28;16.67;;;12.00;;
40459;SDS011;26164;51.138;16.952;2023-09-18T05:06:55;19.98;;;12.73;;
40459;SDS011;26164;51.138;16.952;2023-09-18T05:09:21;16.17;;;12.05;;
40459;SDS011;26164;51.138;16.952;2023-09-18T05:12:04;14.13;;;11.55;;
40459;SDS011;26164;51.138;16.952;2023-09-18T05:14:43;13.73;;;11.30;;
40459;SDS011;26164;51.138;16.952;2023-09-18T05:17:10;15.60;;;11.63;;
40459;SDS011;26164;51.138;16.952;2023-09-18T05:19:39;14.48;;;11.25;;
40459;SDS011;26164;51.138;16.952;2023-09-18T05:22:05;21.38;;;11.80;;
40459;SDS011;26164;51.138;16.952;2023-09-18T05:24:46;17.48;;;11.63;;
40459;SDS011;26164;51.138;16.952;2023-09-18T05:27:12;15.23;;;12.13;;
40459;SDS011;26164;51.138;16.952;2023-09-18T05:29:38;15.10;;;11.05;;
40459;SDS011;26164;51.138;16.952;2023-09-18T05:32:08;17.23;;;10.55;;
40459;SDS011;26164;51.138;16.952;2023-09-18T05:34:34;21.80;;;11.23;;
40459;SDS011;26164;51.138;16.952;2023-09-18T05:37:00;19.27;;;11.15;;
40459;SDS011;26164;51.138;16.952;2023-09-18T05:39:26;17.27;;;10.82;;
40459;SDS011;26164;51.138;16.952;2023-09-18T05:41:52;13.45;;;10.57;;
40459;SDS011;26164;51.138;16.952;2023-09-18T05:44:18;12.82;;;9.80;;
40459;SDS011;26164;51.138;16.952;2023-09-18T05:46:44;17.88;;;10.02;;
40459;SDS011;26164;51.138;16.952;2023-09-18T05:49:11;15.30;;;10.45;;
40459;SDS011;26164;51.138;16.952;2023-09-18T05:51:38;16.52;;;9.85;;
40459;SDS011;26164;51.138;16.952;2023-09-18T05:54:04;14.07;;;10.10;;
40459;SDS011;26164;51.138;16.952;2023-09-18T05:56:30;14.90;;;9.82;;
40459;SDS011;26164;51.138;16.952;2023-09-18T05:58:55;14.10;;;9.80;;
40459;SDS011;26164;51.138;16.952;2023-09-18T06:01:22;12.68;;;9.38;;
40459;SDS011;26164;51.138;16.952;2023-09-18T06:03:47;16.02;;;8.88;;
40459;SDS011;26164;51.138;16.952;2023-09-18T06:06:14;18.95;;;9.82;;
40459;SDS011;26164;51.138;16.952;2023-09-18T06:08:40;13.70;;;9.23;;
40459;SDS011;26164;51.138;16.952;2023-09-18T06:11:06;13.90;;;9.35;;
40459;SDS011;26164;51.138;16.952;2023-09-18T06:13:32;14.35;;;9.25;;
40459;SDS011;26164;51.138;16.952;2023-09-18T06:16:02;12.65;;;9.38;;
40459;SDS011;26164;51.138;16.952;2023-09-18T06:18:33;16.45;;;9.77;;
40459;SDS011;26164;51.138;16.952;2023-09-18T06:20:59;13.55;;;9.25;;
40459;SDS011;26164;51.138;16.952;2023-09-18T06:23:25;12.32;;;8.95;;
40459;SDS011;26164;51.138;16.952;2023-09-18T06:25:51;16.83;;;9.95;;
40459;SDS011;26164;51.138;16.952;2023-09-18T06:28:22;15.98;;;10.30;;
40459;SDS011;26164;51.138;16.952;2023-09-18T06:30:48;14.95;;;10.07;;
40459;SDS011;26164;51.138;16.952;2023-09-18T06:33:14;15.50;;;9.85;;
40459;SDS011;26164;51.138;16.952;2023-09-18T06:35:41;23.23;;;10.23;;
40459;SDS011;26164;51.138;16.952;2023-09-18T06:38:35;16.03;;;10.27;;
40459;SDS011;26164;51.138;16.952;2023-09-18T06:41:01;14.60;;;10.15;;
40459;SDS011;26164;51.138;16.952;2023-09-18T06:43:27;15.00;;;9.82;;
40459;SDS011;26164;51.138;16.952;2023-09-18T06:45:53;15.10;;;9.27;;
40459;SDS011;26164;51.138;16.952;2023-09-18T06:48:19;15.98;;;9.13;;
40459;SDS011;26164;51.138;16.952;2023-09-18T06:50:47;12.07;;;8.77;;
40459;SDS011;26164;51.138;16.952;2023-09-18T06:53:14;12.38;;;8.57;;
40459;SDS011;26164;51.138;16.952;2023-09-18T06:55:40;10.93;;;8.60;;
40459;SDS011;26164;51.138;16.952;2023-09-18T06:58:06;15.18;;;8.40;;
40459;SDS011;26164;51.138;16.952;2023-09-18T07:00:32;11.32;;;8.55;;
40459;SDS011;26164;51.138;16.952;2023-09-18T07:02:58;13.70;;;8.63;;
40459;SDS011;26164;51.138;16.952;2023-09-18T07:05:24;12.15;;;8.45;;
40459;SDS011;26164;51.138;16.952;2023-09-18T07:07:50;11.27;;;8.40;;
40459;SDS011;26164;51.138;16.952;2023-09-18T07:10:18;20.08;;;8.75;;
40459;SDS011;26164;51.138;16.952;2023-09-18T07:12:44;12.30;;;8.48;;
40459;SDS011;26164;51.138;16.952;2023-09-18T07:15:10;16.27;;;8.70;;
40459;SDS011;26164;51.138;16.952;2023-09-18T07:17:36;15.55;;;9.00;;
40459;SDS011;26164;51.138;16.952;2023-09-18T07:20:02;14.80;;;8.52;;
40459;SDS011;26164;51.138;16.952;2023-09-18T07:22:45;14.15;;;8.18;;
40459;SDS011;26164;51.138;16.952;2023-09-18T07:27:38;13.73;;;7.85;;
40459;SDS011;26164;51.138;16.952;2023-09-18T07:30:10;12.95;;;8.30;;
40459;SDS011;26164;51.138;16.952;2023-09-18T07:32:36;15.40;;;8.60;;
40459;SDS011;26164;51.138;16.952;2023-09-18T07:35:03;12.48;;;9.50;;
40459;SDS011;26164;51.138;16.952;2023-09-18T07:37:33;12.13;;;8.38;;
40459;SDS011;26164;51.138;16.952;2023-09-18T07:39:59;12.35;;;8.07;;
40459;SDS011;26164;51.138;16.952;2023-09-18T07:42:25;13.43;;;8.50;;
40459;SDS011;26164;51.138;16.952;2023-09-18T07:44:51;15.98;;;8.10;;
40459;SDS011;26164;51.138;16.952;2023-09-18T07:47:17;13.52;;;8.75;;
40459;SDS011;26164;51.138;16.952;2023-09-18T07:49:55;11.85;;;7.97;;
40459;SDS011;26164;51.138;16.952;2023-09-18T07:52:20;11.85;;;8.15;;
40459;SDS011;26164;51.138;16.952;2023-09-18T07:54:46;12.88;;;8.57;;
40459;SDS011;26164;51.138;16.952;2023-09-18T07:57:12;16.45;;;8.35;;
40459;SDS011;26164;51.138;16.952;2023-09-18T07:59:39;12.52;;;7.65;;
40459;SDS011;26164;51.138;16.952;2023-09-18T08:02:05;13.77;;;7.38;;
40459;SDS011;26164;51.138;16.952;2023-09-18T08:04:32;12.88;;;7.65;;
40459;SDS011;26164;51.138;16.952;2023-09-18T08:06:57;12.52;;;7.55;;
40459;SDS011;26164;51.138;16.952;2023-09-18T08:09:24;14.27;;;7.45;;
40459;SDS011;26164;51.138;16.952;2023-09-18T08:11:50;13.07;;;8.10;;
40459;SDS011;26164;51.138;16.952;2023-09-18T08:14:22;13.40;;;7.50;;
40459;SDS011;26164;51.138;16.952;2023-09-18T08:16:48;18.42;;;7.93;;
40459;SDS011;26164;51.138;16.952;2023-09-18T08:19:17;14.52;;;8.27;;
40459;SDS011;26164;51.138;16.952;2023-09-18T08:21:44;10.85;;;7.85;;
40459;SDS011;26164;51.138;16.952;2023-09-18T08:24:10;10.68;;;8.05;;
40459;SDS011;26164;51.138;16.952;2023-09-18T08:26:35;10.95;;;7.53;;
40459;SDS011;26164;51.138;16.952;2023-09-18T08:29:02;12.48;;;8.13;;
40459;SDS011;26164;51.138;16.952;2023-09-18T08:31:28;11.43;;;7.80;;
40459;SDS011;26164;51.138;16.952;2023-09-18T08:33:56;11.90;;;8.15;;
40459;SDS011;26164;51.138;16.952;2023-09-18T08:36:21;11.98;;;7.95;;
40459;SDS011;26164;51.138;16.952;2023-09-18T08:38:47;13.60;;;8.68;;
40459;SDS011;26164;51.138;16.952;2023-09-18T08:41:15;12.90;;;9.15;;
40459;SDS011;26164;51.138;16.952;2023-09-18T08:43:43;11.90;;;8.45;;
40459;SDS011;26164;51.138;16.952;2023-09-18T08:46:09;13.32;;;8.40;;
40459;SDS011;26164;51.138;16.952;2023-09-18T08:48:37;13.43;;;8.80;;
40459;SDS011;26164;51.138;16.952;2023-09-18T08:51:03;12.73;;;8.55;;
40459;SDS011;26164;51.138;16.952;2023-09-18T08:53:36;15.35;;;8.50;;
40459;SDS011;26164;51.138;16.952;2023-09-18T08:56:05;12.90;;;9.05;;
40459;SDS011;26164;51.138;16.952;2023-09-18T08:58:33;12.55;;;8.88;;
40459;SDS011;26164;51.138;16.952;2023-09-18T09:01:01;13.63;;;8.85;;
40459;SDS011;26164;51.138;16.952;2023-09-18T09:03:30;16.52;;;8.90;;
40459;SDS011;26164;51.138;16.952;2023-09-18T09:05:56;13.85;;;8.50;;
40459;SDS011;26164;51.138;16.952;2023-09-18T09:08:27;17.08;;;8.93;;
40459;SDS011;26164;51.138;16.952;2023-09-18T09:10:53;14.30;;;9.32;;
40459;SDS011;26164;51.138;16.952;2023-09-18T09:13:21;13.65;;;8.77;;
40459;SDS011;26164;51.138;16.952;2023-09-18T09:15:52;14.77;;;9.10;;
40459;SDS011;26164;51.138;16.952;2023-09-18T09:18:20;15.43;;;9.30;;
40459;SDS011;26164;51.138;16.952;2023-09-18T09:20:53;14.15;;;9.35;;
40459;SDS011;26164;51.138;16.952;2023-09-18T09:23:19;13.57;;;9.43;;
40459;SDS011;26164;51.138;16.952;2023-09-18T09:25:45;14.50;;;9.07;;
40459;SDS011;26164;51.138;16.952;2023-09-18T09:28:12;12.15;;;9.63;;
40459;SDS011;26164;51.138;16.952;2023-09-18T09:30:38;11.95;;;9.68;;
40459;SDS011;26164;51.138;16.952;2023-09-18T09:33:05;11.85;;;9.40;;
40459;SDS011;26164;51.138;16.952;2023-09-18T09:35:34;13.40;;;8.77;;
40459;SDS011;26164;51.138;16.952;2023-09-18T09:38:02;12.70;;;9.57;;
40459;SDS011;26164;51.138;16.952;2023-09-18T09:40:32;12.82;;;8.95;;
40459;SDS011;26164;51.138;16.952;2023-09-18T09:42:58;11.35;;;9.35;;
40459;SDS011;26164;51.138;16.952;2023-09-18T09:45:27;12.30;;;8.85;;
40459;SDS011;26164;51.138;16.952;2023-09-18T09:47:56;12.32;;;9.23;;
40459;SDS011;26164;51.138;16.952;2023-09-18T09:50:22;12.32;;;9.00;;
40459;SDS011;26164;51.138;16.952;2023-09-18T09:52:49;11.63;;;8.90;;
40459;SDS011;26164;51.138;16.952;2023-09-18T09:57:49;14.45;;;9.52;;
40459;SDS011;26164;51.138;16.952;2023-09-18T10:00:15;12.82;;;9.32;;
40459;SDS011;26164;51.138;16.952;2023-09-18T10:02:56;11.25;;;9.13;;
40459;SDS011;26164;51.138;16.952;2023-09-18T10:05:23;12.88;;;8.82;;
40459;SDS011;26164;51.138;16.952;2023-09-18T10:07:52;10.63;;;8.95;;
40459;SDS011;26164;51.138;16.952;2023-09-18T10:10:18;10.80;;;8.52;;
40459;SDS011;26164;51.138;16.952;2023-09-18T10:12:44;14.10;;;7.60;;
40459;SDS011;26164;51.138;16.952;2023-09-18T10:15:11;10.73;;;7.38;;
40459;SDS011;26164;51.138;16.952;2023-09-18T10:17:37;12.65;;;8.60;;
40459;SDS011;26164;51.138;16.952;2023-09-18T10:20:13;10.85;;;8.23;;
40459;SDS011;26164;51.138;16.952;2023-09-18T10:22:52;13.10;;;8.18;;
40459;SDS011;26164;51.138;16.952;2023-09-18T10:25:27;11.57;;;8.45;;
40459;SDS011;26164;51.138;16.952;2023-09-18T10:27:54;16.77;;;8.40;;
40459;SDS011;26164;51.138;16.952;2023-09-18T10:30:29;13.55;;;8.27;;
40459;SDS011;26164;51.138;16.952;2023-09-18T10:32:55;15.48;;;8.15;;
40459;SDS011;26164;51.138;16.952;2023-09-18T10:35:21;11.15;;;7.80;;
40459;SDS011;26164;51.138;16.952;2023-09-18T10:37:50;9.68;;;7.75;;
40459;SDS011;26164;51.138;16.952;2023-09-18T10:40:18;13.98;;;7.35;;
40459;SDS011;26164;51.138;16.952;2023-09-18T10:42:51;12.80;;;7.70;;
40459;SDS011;26164;51.138;16.952;2023-09-18T10:45:17;11.88;;;8.30;;
40459;SDS011;26164;51.138;16.952;2023-09-18T10:47:43;15.60;;;9.35;;
40459;SDS011;26164;51.138;16.952;2023-09-18T10:50:13;13.57;;;7.97;;
40459;SDS011;26164;51.138;16.952;2023-09-18T10:53:02;11.65;;;7.85;;
40459;SDS011;26164;51.138;16.952;2023-09-18T10:55:28;10.98;;;7.78;;
40459;SDS011;26164;51.138;16.952;2023-09-18T10:57:55;9.57;;;8.00;;
40459;SDS011;26164;51.138;16.952;2023-09-18T11:00:28;9.13;;;7.60;;
40459;SDS011;26164;51.138;16.952;2023-09-18T11:03:08;16.20;;;8.32;;
40459;SDS011;26164;51.138;16.952;2023-09-18T11:05:36;10.50;;;7.80;;
40459;SDS011;26164;51.138;16.952;2023-09-18T11:13:43;8.55;;;7.25;;
40459;SDS011;26164;51.138;16.952;2023-09-18T11:19:05;10.63;;;7.70;;
40459;SDS011;26164;51.138;16.952;2023-09-18T11:21:33;11.38;;;7.57;;
40459;SDS011;26164;51.138;16.952;2023-09-18T11:26:29;8.45;;;7.38;;
40459;SDS011;26164;51.138;16.952;2023-09-18T11:28:55;10.35;;;7.72;;
40459;SDS011;26164;51.138;16.952;2023-09-18T11:32:06;13.45;;;8.07;;
40459;SDS011;26164;51.138;16.952;2023-09-18T11:34:27;14.48;;;7.75;;
40459;SDS011;26164;51.138;16.952;2023-09-18T11:37:21;13.68;;;7.45;;
40459;SDS011;26164;51.138;16.952;2023-09-18T11:39:47;12.25;;;7.75;;
40459;SDS011;26164;51.138;16.952;2023-09-18T11:42:18;9.77;;;7.35;;
40459;SDS011;26164;51.138;16.952;2023-09-18T11:44:44;13.00;;;7.35;;
40459;SDS011;26164;51.138;16.952;2023-09-18T11:47:15;10.77;;;7.43;;
40459;SDS011;26164;51.138;16.952;2023-09-18T11:52:21;11.65;;;5.93;;
40459;SDS011;26164;51.138;16.952;2023-09-18T11:54:47;10.57;;;6.90;;
40459;SDS011;26164;51.138;16.952;2023-09-18T11:57:14;10.73;;;6.97;;
40459;SDS011;26164;51.138;16.952;2023-09-18T11:59:41;8.55;;;6.80;;
40459;SDS011;26164;51.138;16.952;2023-09-18T12:02:10;6.60;;;4.65;;
40459;SDS011;26164;51.138;16.952;2023-09-18T12:04:36;6.50;;;4.47;;
40459;SDS011;26164;51.138;16.952;2023-09-18T12:07:03;6.75;;;4.88;;
40459;SDS011;26164;51.138;16.952;2023-09-18T12:09:30;9.40;;;4.72;;
40459;SDS011;26164;51.138;16.952;2023-09-18T12:11:59;6.93;;;4.70;;
40459;SDS011;26164;51.138;16.952;2023-09-18T12:14:32;6.40;;;4.57;;
40459;SDS011;26164;51.138;16.952;2023-09-18T12:17:02;8.52;;;4.65;;
40459;SDS011;26164;51.138;16.952;2023-09-18T12:19:29;7.75;;;4.75;;
40459;SDS011;26164;51.138;16.952;2023-09-18T12:22:11;12.45;;;4.20;;
40459;SDS011;26164;51.138;16.952;2023-09-18T12:24:50;6.72;;;4.28;;
40459;SDS011;26164;51.138;16.952;2023-09-18T12:27:16;11.70;;;4.50;;
40459;SDS011;26164;51.138;16.952;2023-09-18T12:29:59;8.45;;;4.40;;
40459;SDS011;26164;51.138;16.952;2023-09-18T12:32:31;8.00;;;4.10;;
40459;SDS011;26164;51.138;16.952;2023-09-18T12:35:01;13.55;;;4.30;;
40459;SDS011;26164;51.138;16.952;2023-09-18T12:37:43;5.85;;;3.53;;
40459;SDS011;26164;51.138;16.952;2023-09-18T12:40:27;10.15;;;3.88;;
40459;SDS011;26164;51.138;16.952;2023-09-18T12:43:03;6.55;;;3.40;;
40459;SDS011;26164;51.138;16.952;2023-09-18T12:45:32;8.15;;;4.22;;
40459;SDS011;26164;51.138;16.952;2023-09-18T12:48:03;6.68;;;3.67;;
40459;SDS011;26164;51.138;16.952;2023-09-18T12:50:30;10.10;;;3.75;;
40459;SDS011;26164;51.138;16.952;2023-09-18T12:53:12;7.97;;;3.80;;
40459;SDS011;26164;51.138;16.952;2023-09-18T12:55:48;9.73;;;3.50;;
40459;SDS011;26164;51.138;16.952;2023-09-18T12:58:20;5.93;;;3.88;;
40459;SDS011;26164;51.138;16.952;2023-09-18T13:00:46;6.68;;;3.90;;
40459;SDS011;26164;51.138;16.952;2023-09-18T13:03:31;8.27;;;3.70;;
40459;SDS011;26164;51.138;16.952;2023-09-18T13:06:19;10.00;;;3.78;;
40459;SDS011;26164;51.138;16.952;2023-09-18T13:08:54;9.35;;;3.45;;
40459;SDS011;26164;51.138;16.952;2023-09-18T13:11:28;8.40;;;3.97;;
40459;SDS011;26164;51.138;16.952;2023-09-18T13:13:58;9.00;;;3.50;;
40459;SDS011;26164;51.138;16.952;2023-09-18T13:16:27;8.32;;;3.40;;
40459;SDS011;26164;51.138;16.952;2023-09-18T13:19:03;9.73;;;4.03;;
40459;SDS011;26164;51.138;16.952;2023-09-18T13:21:29;7.25;;;3.72;;
40459;SDS011;26164;51.138;16.952;2023-09-18T13:24:23;6.93;;;3.63;;
40459;SDS011;26164;51.138;16.952;2023-09-18T13:27:25;7.13;;;3.53;;
40459;SDS011;26164;51.138;16.952;2023-09-18T13:29:54;9.90;;;3.97;;
40459;SDS011;26164;51.138;16.952;2023-09-18T13:32:20;15.68;;;4.03;;
40459;SDS011;26164;51.138;16.952;2023-09-18T13:35:00;11.15;;;3.80;;
40459;SDS011;26164;51.138;16.952;2023-09-18T13:37:30;7.75;;;3.80;;
40459;SDS011;26164;51.138;16.952;2023-09-18T13:40:12;10.45;;;3.85;;
40459;SDS011;26164;51.138;16.952;2023-09-18T13:42:49;22.05;;;4.45;;
40459;SDS011;26164;51.138;16.952;2023-09-18T13:45:15;14.50;;;3.88;;
40459;SDS011;26164;51.138;16.952;2023-09-18T13:50:15;11.13;;;3.90;;
40459;SDS011;26164;51.138;16.952;2023-09-18T13:52:59;7.25;;;3.75;;
40459;SDS011;26164;51.138;16.952;2023-09-18T13:55:27;11.43;;;4.10;;
40459;SDS011;26164;51.138;16.952;2023-09-18T13:57:53;11.82;;;4.10;;
40459;SDS011;26164;51.138;16.952;2023-09-18T14:00:33;11.65;;;4.30;;
40459;SDS011;26164;51.138;16.952;2023-09-18T14:03:14;10.65;;;4.55;;
40459;SDS011;26164;51.138;16.952;2023-09-18T14:05:46;8.32;;;4.47;;
40459;SDS011;26164;51.138;16.952;2023-09-18T14:08:13;9.50;;;4.25;;
40459;SDS011;26164;51.138;16.952;2023-09-18T14:10:42;8.13;;;4.43;;
40459;SDS011;26164;51.138;16.952;2023-09-18T14:13:09;9.70;;;3.80;;
40459;SDS011;26164;51.138;16.952;2023-09-18T14:15:51;11.90;;;4.20;;
40459;SDS011;26164;51.138;16.952;2023-09-18T14:18:32;9.02;;;4.10;;
40459;SDS011;26164;51.138;16.952;2023-09-18T14:21:13;11.77;;;4.43;;
40459;SDS011;26164;51.138;16.952;2023-09-18T14:23:41;9.48;;;4.13;;
40459;SDS011;26164;51.138;16.952;2023-09-18T14:26:07;11.30;;;4.13;;
40459;SDS011;26164;51.138;16.952;2023-09-18T14:28:36;7.80;;;4.00;;
40459;SDS011;26164;51.138;16.952;2023-09-18T14:31:04;13.77;;;4.45;;
40459;SDS011;26164;51.138;16.952;2023-09-18T14:33:35;15.50;;;4.30;;
40459;SDS011;26164;51.138;16.952;2023-09-18T14:36:03;14.43;;;4.15;;
40459;SDS011;26164;51.138;16.952;2023-09-18T14:38:32;10.18;;;3.88;;
40459;SDS011;26164;51.138;16.952;2023-09-18T14:40:58;11.38;;;3.97;;
40459;SDS011;26164;51.138;16.952;2023-09-18T14:43:44;9.15;;;3.78;;
40459;SDS011;26164;51.138;16.952;2023-09-18T14:46:18;13.18;;;3.88;;
40459;SDS011;26164;51.138;16.952;2023-09-18T14:48:45;11.95;;;3.90;;
40459;SDS011;26164;51.138;16.952;2023-09-18T14:51:19;7.28;;;3.70;;